Weather at Cochrane Airport

Public forecast

Using degrees Celsius for public forecast. Weather courtesy of forecast.io.

Closest aviation weather report (METAR) to Cochrane Airport

Closest report is Balmaceda Airport, 87.9 nm (162.8 km) NNE.

2024/07/25 12:00 (retrieved 36 minutes ago)

SCBA 251200Z 29022KT CAVOK 01/M04 Q1010

Aviation forecast (TAF) for Cochrane Airport

2024/07/25 12:00 (retrieved 36 minutes ago)

TAF SCHR 251045Z 2512/2600 28005KT 9999 SCT050 TN02/2512Z TX07/2518Z TEMPO 2515/2519 SCT025 BKN040